Time,TemperatureF,DewpointF,PressureIn,WindDirection,WindDirectionDegrees,WindSpeedMPH,WindSpeedGustMPH,Humidity,HourlyPrecipIn,Conditions,Clouds,dailyrainin,SolarRadiationWatts/m^2,SoftwareType,DateUTC
2013-06-11 00:02:00,82.0,61.0,-100.00,SE,145,6.0,11.0,50,0.00,,,0.00,0.000000,,2013-06-11 05:02:00,
2013-06-11 00:32:00,79.0,62.0,-100.00,SSE,147,5.0,9.0,56,0.00,,,0.00,0.000000,,2013-06-11 05:32:00,
2013-06-11 00:42:00,79.0,62.0,-100.00,SSE,147,5.0,9.0,56,0.00,,,0.00,0.000000,,2013-06-11 05:42:00,
2013-06-11 00:52:00,79.0,62.0,-100.00,SSE,147,5.0,9.0,56,0.00,,,0.00,0.000000,,2013-06-11 05:52:00,
2013-06-11 01:02:00,79.0,62.0,-100.00,SSE,147,5.0,9.0,56,0.00,,,0.00,0.000000,,2013-06-11 06:02:00,
2013-06-11 02:32:00,78.0,66.0,-100.00,SSE,163,8.0,12.0,66,-99.99,,,0.00,0.000000,,2013-06-11 07:32:00,
2013-06-11 02:42:00,78.0,66.0,-100.00,SSE,163,8.0,12.0,66,-99.99,,,0.00,0.000000,,2013-06-11 07:42:00,
2013-06-11 02:52:00,78.0,66.0,-100.00,SSE,163,8.0,12.0,66,-99.99,,,0.00,0.000000,,2013-06-11 07:52:00,
2013-06-11 03:02:00,78.0,66.0,-100.00,SSE,163,8.0,12.0,66,-99.99,,,0.00,0.000000,,2013-06-11 08:02:00,
2013-06-11 03:32:00,77.0,68.0,-100.00,SSE,162,7.0,13.0,74,0.00,,,0.00,0.000000,,2013-06-11 08:32:00,
2013-06-11 03:42:00,77.0,68.0,-100.00,SSE,162,7.0,13.0,74,0.00,,,0.00,0.000000,,2013-06-11 08:42:00,
2013-06-11 03:52:00,77.0,68.0,-100.00,SSE,162,7.0,13.0,74,0.00,,,0.00,0.000000,,2013-06-11 08:52:00,
2013-06-11 04:02:00,77.0,68.0,-100.00,SSE,162,7.0,13.0,74,0.00,,,0.00,0.000000,,2013-06-11 09:02:00,
2013-06-11 04:33:00,76.0,69.0,-100.00,SSE,163,7.0,12.0,79,0.00,,,0.00,0.000000,,2013-06-11 09:33:00,
2013-06-11 04:43:00,76.0,69.0,-100.00,SSE,163,7.0,12.0,79,0.00,,,0.00,0.000000,,2013-06-11 09:43:00,
2013-06-11 04:53:00,76.0,69.0,-100.00,SSE,163,7.0,12.0,79,0.00,,,0.00,0.000000,,2013-06-11 09:53:00,
2013-06-11 05:03:00,76.0,69.0,-100.00,SSE,163,7.0,12.0,79,0.00,,,0.00,0.000000,,2013-06-11 10:03:00,
2013-06-11 05:33:00,76.0,70.0,-100.00,SSE,164,8.0,11.0,82,0.00,,,0.00,0.000000,,2013-06-11 10:33:00,
2013-06-11 05:43:00,76.0,70.0,-100.00,SSE,164,8.0,11.0,82,0.00,,,0.00,0.000000,,2013-06-11 10:43:00,
2013-06-11 05:52:00,76.0,70.0,-100.00,SSE,164,8.0,11.0,82,0.00,,,0.00,0.000000,,2013-06-11 10:52:00,
2013-06-11 06:02:00,76.0,70.0,-100.00,SSE,164,8.0,11.0,82,0.00,,,0.00,0.000000,,2013-06-11 11:02:00,
2013-06-11 06:32:00,76.0,71.0,-100.00,SSE,168,7.0,13.0,84,0.00,,,-99.99,0.000000,,2013-06-11 11:32:00,
2013-06-11 06:42:00,76.0,71.0,-100.00,SSE,168,7.0,13.0,84,0.00,,,-99.99,0.000000,,2013-06-11 11:42:00,
2013-06-11 06:52:00,76.0,71.0,-100.00,SSE,168,7.0,13.0,84,0.00,,,-99.99,0.000000,,2013-06-11 11:52:00,
2013-06-11 07:02:00,76.0,71.0,-100.00,SSE,168,7.0,13.0,84,0.00,,,-99.99,0.000000,,2013-06-11 12:02:00,
2013-06-11 07:32:00,76.0,71.0,-100.00,SSE,164,7.0,12.0,84,0.00,,,-99.99,23.000000,,2013-06-11 12:32:00,
2013-06-11 07:42:00,76.0,71.0,-100.00,SSE,164,7.0,12.0,84,0.00,,,-99.99,23.000000,,2013-06-11 12:42:00,
2013-06-11 07:52:00,76.0,71.0,-100.00,SSE,164,7.0,12.0,84,0.00,,,-99.99,23.000000,,2013-06-11 12:52:00,
2013-06-11 08:02:00,76.0,71.0,-100.00,SSE,164,7.0,12.0,84,0.00,,,-99.99,23.000000,,2013-06-11 13:02:00,
2013-06-11 08:32:00,78.0,72.0,-100.00,South,169,7.0,11.0,82,0.00,,,-99.99,117.000000,,2013-06-11 13:32:00,
2013-06-11 08:42:00,78.0,72.0,-100.00,South,169,7.0,11.0,82,0.00,,,-99.99,117.000000,,2013-06-11 13:42:00,
2013-06-11 08:52:00,78.0,72.0,-100.00,South,169,7.0,11.0,82,0.00,,,-99.99,117.000000,,2013-06-11 13:52:00,
2013-06-11 09:02:00,78.0,72.0,-100.00,South,169,7.0,11.0,82,0.00,,,-99.99,117.000000,,2013-06-11 14:02:00,
2013-06-11 09:32:00,81.0,74.0,-100.00,South,173,8.0,13.0,79,0.00,,,0.00,244.000000,,2013-06-11 14:32:00,
2013-06-11 09:42:00,81.0,74.0,-100.00,South,173,8.0,13.0,79,0.00,,,0.00,244.000000,,2013-06-11 14:42:00,
2013-06-11 09:53:00,81.0,74.0,-100.00,South,173,8.0,13.0,79,0.00,,,0.00,244.000000,,2013-06-11 14:53:00,
2013-06-11 10:02:00,81.0,74.0,-100.00,South,173,8.0,13.0,79,0.00,,,0.00,244.000000,,2013-06-11 15:02:00,
2013-06-11 10:33:00,85.0,74.0,-100.00,South,182,8.0,14.0,69,0.00,,,0.00,596.000000,,2013-06-11 15:33:00,
2013-06-11 10:43:00,85.0,74.0,-100.00,South,182,8.0,14.0,69,0.00,,,0.00,596.000000,,2013-06-11 15:43:00,
2013-06-11 10:53:00,85.0,74.0,-100.00,South,182,8.0,14.0,69,0.00,,,0.00,596.000000,,2013-06-11 15:53:00,
2013-06-11 11:03:00,85.0,74.0,-100.00,South,182,8.0,14.0,69,0.00,,,0.00,596.000000,,2013-06-11 16:03:00,
2013-06-11 11:33:00,87.0,72.0,-100.00,South,187,8.0,13.0,61,0.00,,,0.00,711.000000,,2013-06-11 16:33:00,
2013-06-11 11:42:00,87.0,72.0,-100.00,South,187,8.0,13.0,61,0.00,,,0.00,711.000000,,2013-06-11 16:42:00,
2013-06-11 11:52:00,87.0,72.0,-100.00,South,187,8.0,13.0,61,0.00,,,0.00,711.000000,,2013-06-11 16:52:00,
2013-06-11 12:02:00,87.0,72.0,-100.00,South,187,8.0,13.0,61,0.00,,,0.00,711.000000,,2013-06-11 17:02:00,
2013-06-11 12:32:00,90.0,69.0,-100.00,South,175,7.0,14.0,51,0.00,,,0.00,929.000000,,2013-06-11 17:32:00,
2013-06-11 12:43:00,90.0,69.0,-100.00,South,175,7.0,14.0,51,0.00,,,0.00,929.000000,,2013-06-11 17:43:00,
2013-06-11 12:52:00,90.0,69.0,-100.00,South,175,7.0,14.0,51,0.00,,,0.00,929.000000,,2013-06-11 17:52:00,
2013-06-11 13:02:00,90.0,69.0,-100.00,South,175,7.0,14.0,51,0.00,,,0.00,929.000000,,2013-06-11 18:02:00,
2013-06-11 13:33:00,91.0,70.0,-100.00,South,180,8.0,15.0,50,0.00,,,0.00,951.000000,,2013-06-11 18:33:00,
2013-06-11 13:43:00,91.0,70.0,-100.00,South,180,8.0,15.0,50,0.00,,,0.00,951.000000,,2013-06-11 18:43:00,
2013-06-11 13:52:00,91.0,70.0,-100.00,South,180,8.0,15.0,50,0.00,,,0.00,951.000000,,2013-06-11 18:52:00,
2013-06-11 14:02:00,91.0,70.0,-100.00,South,180,8.0,15.0,50,0.00,,,0.00,951.000000,,2013-06-11 19:02:00,
2013-06-11 14:33:00,91.0,69.0,-100.00,SSE,155,9.0,17.0,49,0.00,,,0.00,811.000000,,2013-06-11 19:33:00,
2013-06-11 14:42:00,91.0,69.0,-100.00,SSE,155,9.0,17.0,49,0.00,,,0.00,811.000000,,2013-06-11 19:42:00,
2013-06-11 14:53:00,91.0,69.0,-100.00,SSE,155,9.0,17.0,49,0.00,,,0.00,811.000000,,2013-06-11 19:53:00,
2013-06-11 15:02:00,91.0,69.0,-100.00,SSE,155,9.0,17.0,49,0.00,,,0.00,811.000000,,2013-06-11 20:02:00,
2013-06-11 15:32:00,91.0,67.0,-100.00,SSE,163,11.0,19.0,45,0.00,,,0.00,923.000000,,2013-06-11 20:32:00,
2013-06-11 15:42:00,91.0,67.0,-100.00,SSE,163,11.0,19.0,45,0.00,,,0.00,923.000000,,2013-06-11 20:42:00,
2013-06-11 15:52:00,91.0,67.0,-100.00,SSE,163,11.0,19.0,45,0.00,,,0.00,923.000000,,2013-06-11 20:52:00,
2013-06-11 16:02:00,91.0,67.0,-100.00,SSE,163,11.0,19.0,45,0.00,,,0.00,923.000000,,2013-06-11 21:02:00,
2013-06-11 16:33:00,92.0,66.0,-100.00,South,170,11.0,20.0,43,0.00,,,0.00,902.000000,,2013-06-11 21:33:00,
2013-06-11 16:42:00,92.0,66.0,-100.00,South,170,11.0,20.0,43,0.00,,,0.00,902.000000,,2013-06-11 21:42:00,
2013-06-11 16:53:00,92.0,66.0,-100.00,South,170,11.0,20.0,43,0.00,,,0.00,902.000000,,2013-06-11 21:53:00,
2013-06-11 17:03:00,92.0,66.0,-100.00,South,170,11.0,20.0,43,0.00,,,0.00,902.000000,,2013-06-11 22:03:00,
2013-06-11 17:33:00,91.0,66.0,-100.00,SSE,167,10.0,19.0,44,0.00,,,0.00,513.000000,,2013-06-11 22:33:00,
2013-06-11 17:42:00,91.0,66.0,-100.00,SSE,167,10.0,19.0,44,0.00,,,0.00,513.000000,,2013-06-11 22:42:00,
2013-06-11 17:52:00,91.0,66.0,-100.00,SSE,167,10.0,19.0,44,0.00,,,0.00,513.000000,,2013-06-11 22:52:00,
2013-06-11 18:02:00,91.0,66.0,-100.00,SSE,167,10.0,19.0,44,0.00,,,0.00,513.000000,,2013-06-11 23:02:00,
2013-06-11 18:32:00,92.0,66.0,-100.00,South,190,8.0,18.0,43,0.00,,,0.00,368.000000,,2013-06-11 23:32:00,
2013-06-11 18:42:00,92.0,66.0,-100.00,South,190,8.0,18.0,43,0.00,,,0.00,368.000000,,2013-06-11 23:42:00,
2013-06-11 18:52:00,92.0,66.0,-100.00,South,190,8.0,18.0,43,0.00,,,0.00,368.000000,,2013-06-11 23:52:00,
2013-06-11 19:02:00,92.0,66.0,-100.00,South,190,8.0,18.0,43,0.00,,,0.00,368.000000,,2013-06-12 00:02:00,
2013-06-11 19:32:00,92.0,66.0,-100.00,South,181,8.0,17.0,42,0.00,,,0.00,345.000000,,2013-06-12 00:32:00,
2013-06-11 19:42:00,92.0,66.0,-100.00,South,181,8.0,17.0,42,0.00,,,0.00,345.000000,,2013-06-12 00:42:00,
2013-06-11 19:52:00,92.0,66.0,-100.00,South,181,8.0,17.0,42,0.00,,,0.00,345.000000,,2013-06-12 00:52:00,
2013-06-11 20:02:00,92.0,66.0,-100.00,South,181,8.0,17.0,42,0.00,,,0.00,345.000000,,2013-06-12 01:02:00,
2013-06-11 20:32:00,89.0,65.0,-100.00,SSE,159,7.0,16.0,46,0.00,,,0.00,140.000000,,2013-06-12 01:32:00,
2013-06-11 20:42:00,89.0,65.0,-100.00,SSE,159,7.0,16.0,46,0.00,,,0.00,140.000000,,2013-06-12 01:42:00,
2013-06-11 20:52:00,89.0,65.0,-100.00,SSE,159,7.0,16.0,46,0.00,,,0.00,140.000000,,2013-06-12 01:52:00,
2013-06-11 21:02:00,89.0,65.0,-100.00,SSE,159,7.0,16.0,46,0.00,,,0.00,140.000000,,2013-06-12 02:02:00,
2013-06-11 21:32:00,86.0,68.0,-100.00,SSE,157,8.0,17.0,56,0.00,,,0.00,9.000000,,2013-06-12 02:32:00,
2013-06-11 21:42:00,86.0,68.0,-100.00,SSE,157,8.0,17.0,56,0.00,,,0.00,9.000000,,2013-06-12 02:42:00,
2013-06-11 21:52:00,86.0,68.0,-100.00,SSE,157,8.0,17.0,56,0.00,,,0.00,9.000000,,2013-06-12 02:52:00,
2013-06-11 22:02:00,86.0,68.0,-100.00,SSE,157,8.0,17.0,56,0.00,,,0.00,9.000000,,2013-06-12 03:02:00,
2013-06-11 23:34:00,83.0,70.0,-100.00,SSE,160,11.0,18.0,64,-99.99,,,0.00,0.000000,,2013-06-12 04:34:00,
2013-06-11 23:42:00,83.0,70.0,-100.00,SSE,160,11.0,18.0,64,-99.99,,,0.00,0.000000,,2013-06-12 04:42:00,
2013-06-11 23:52:00,83.0,70.0,-100.00,SSE,160,11.0,18.0,64,-99.99,,,0.00,0.000000,,2013-06-12 04:52:00,